Latest Weather Observations for Coober Pedy Airport

IDS60801

Issued at 8:02 am CDT Saturday 20 December 2014 (issued every 30 minutes, with the page automatically refreshed every 10 minutes)

About weather observations | Map of weather stations | Latest weather observations for SA | Other Formats
Station Details ID: 016090 Name: COOBER PEDY AIRPORT Lat: -29.03 Lon: 134.72 Height: 225.0 m
Data from the previous 72 hours. | See also: Recent months at Coober Pedy Airport
Date/Time
CDT
Temp
°C
App
Temp
°C
Dew
Point
Rel
Hum
%
Delta-T
°C
Wind Press
QNH
hPa
Press
MSL
hPa
Rain
since 9 am
mm
Dir
 
Spd
km/h
Gust
km/h
Spd
kts
Gust
kts
20/08:00am 23.3 16.8 2.7 26 9.9 E 26 35 14 19 1015.9 1014.6 0.0
20/07:30am 22.4 16.5 1.4 25 9.8 E 22 28 12 15 1016.0 1014.7 0.0
20/07:00am 21.4 16.1 -0.6 23 9.8 ESE 17 20 9 11 1015.8 1014.5 0.0
20/06:30am 21.4 15.8 0.0 24 9.7 E 19 24 10 13 1015.8 1014.5 0.0
20/06:00am 22.0 15.8 -0.1 23 10.0 ESE 22 28 12 15 1015.5 1014.2 0.0
20/05:30am 22.7 16.3 -1.4 20 10.7 ESE 22 26 12 14 1015.3 1014.0 0.0
20/05:00am 23.2 17.1 -2.4 18 11.2 ESE 20 26 11 14 1015.3 1014.0 0.0
20/04:30am 23.5 16.7 -5.5 14 12.0 ESE 22 28 12 15 1015.1 1013.8 0.0
20/04:00am 23.8 17.0 -9.6 10 12.8 SE 20 24 11 13 1014.9 1013.6 0.0
20/03:30am 23.6 17.4 -8.5 11 12.6 SE 17 19 9 10 1015.2 1013.9 0.0
20/03:00am 23.9 17.1 -9.5 10 12.9 SE 20 24 11 13 1014.9 1013.6 0.0
20/02:30am 24.2 17.4 -9.3 10 13.0 SE 20 26 11 14 1015.1 1013.8 0.0
20/02:00am 24.2 17.4 -9.3 10 13.0 SE 20 22 11 12 1015.2 1013.9 0.0
20/01:30am 24.8 18.3 -7.6 11 13.0 SE 19 24 10 13 1015.7 1014.4 0.0
20/01:00am 25.6 19.1 -5.9 12 13.2 SE 20 26 11 14 1015.7 1014.4 0.0
20/12:30am 26.2 19.5 -4.4 13 13.2 SE 22 28 12 15 1015.8 1014.5 0.0
20/12:00am 26.9 20.0 -2.8 14 13.3 SE 24 30 13 16 1015.9 1014.6 0.0
 
Date/Time
CDT
Temp
°C
App
Temp
°C
Dew
Point
Rel
Hum
%
Delta-T
°C
Wind Press
QNH
hPa
Press
MSL
hPa
Rain
since 9 am
mm
Dir
 
Spd
km/h
Gust
km/h
Spd
kts
Gust
kts
19/11:30pm 27.6 20.9 -1.3 15 13.4 SE 24 32 13 17 1016.0 1014.7 0.0
19/11:00pm 28.4 21.9 0.2 16 13.5 SSE 24 32 13 17 1015.8 1014.5 0.0
19/10:30pm 28.8 23.1 0.5 16 13.6 SE 20 26 11 14 1015.7 1014.4 0.0
19/10:00pm 29.5 23.9 0.2 15 14.1 SSE 19 24 10 13 1015.5 1014.2 0.0
19/09:30pm 30.4 24.9 0.9 15 14.5 SSE 19 24 10 13 1015.4 1014.1 0.0
19/09:00pm 31.2 25.6 1.5 15 14.8 S 20 26 11 14 1015.3 1014.0 0.0
19/08:30pm 31.6 26.2 2.7 16 14.7 S 20 24 11 13 1015.3 1014.0 0.0
19/08:00pm 32.1 27.6 4.0 17 14.7 S 17 26 9 14 1015.2 1013.9 0.0
19/07:30pm 32.6 27.6 4.4 17 14.9 S 20 30 11 16 1015.1 1013.8 0.0
19/07:00pm 33.1 27.6 3.9 16 15.3 SSW 22 32 12 17 1015.0 1013.7 0.0
19/06:30pm 33.8 30.5 4.5 16 15.6 SSE 11 39 6 21 1014.8 1013.5 0.0
19/06:00pm 33.0 28.1 3.9 16 15.3 SSW 19 28 10 15 1015.1 1013.8 0.0
19/05:30pm 33.2 28.8 4.9 17 15.1 S 17 28 9 15 1015.1 1013.8 0.0
19/05:00pm 34.2 30.2 4.8 16 15.8 SSW 15 28 8 15 1015.3 1014.0 0.0
19/04:30pm 32.9 28.8 4.6 17 15.0 SW 15 24 8 13 1015.6 1014.3 0.0
19/04:00pm 33.1 29.5 4.8 17 15.1 S 13 28 7 15 1016.0 1014.7 0.0
19/03:30pm 32.0 28.7 4.7 18 14.4 SSW 11 20 6 11 1016.4 1015.1 0.0
19/03:00pm 31.5 28.7 5.1 19 14.0 NW 9 15 5 8 1016.7 1015.4 0.0
19/02:30pm 31.0 27.5 5.4 20 13.6 SSE 13 24 7 13 1017.4 1016.0 0.0
19/02:00pm 30.4 27.3 5.6 21 13.2 S 11 20 6 11 1017.9 1016.6 0.0
19/01:30pm 29.4 25.7 6.1 23 12.4 SSE 15 28 8 15 1018.5 1017.2 0.0
19/01:00pm 29.0 25.7 6.4 24 12.1 SE 13 20 7 11 1019.0 1017.7 0.0
19/12:30pm 28.7 25.1 6.7 25 11.8 SSE 15 26 8 14 1019.3 1018.0 0.0
19/12:00pm 27.7 24.4 6.5 26 11.3 SE 13 22 7 12 1019.3 1018.0 0.0
19/11:30am 26.5 22.7 7.5 30 10.2 SE 17 22 9 12 1019.4 1018.1 0.0
19/11:00am 25.9 21.9 8.4 33 9.5 ESE 19 26 10 14 1019.4 1018.1 0.0
19/10:30am 25.1 21.2 8.6 35 9.0 ESE 19 26 10 14 1019.2 1017.9 0.0
19/10:00am 23.6 19.5 8.5 38 8.1 SE 20 26 11 14 1019.4 1018.1 0.0
19/09:30am 22.8 19.0 8.9 41 7.5 SE 19 30 10 16 1019.3 1018.0 0.0
19/09:00am 22.5 17.7 9.0 42 7.3 SE 24 30 13 16 1019.2 1017.9 0.0
19/08:30am 21.6 17.4 9.8 47 6.4 SE 22 30 12 16 1019.0 1017.7 0.0
19/08:00am 20.8 15.7 9.1 47 6.3 SSE 26 35 14 19 1018.5 1017.2 0.0
19/07:30am 20.4 15.2 7.4 43 6.7 SSE 24 30 13 16 1018.2 1016.9 0.0
19/07:00am 19.8 14.9 6.9 43 6.6 SSE 22 28 12 15 1017.7 1016.3 0.0
19/06:30am 19.7 14.4 6.8 43 6.6 S 24 28 13 15 1017.0 1015.7 0.0
19/06:00am 19.7 14.8 7.1 44 6.5 S 22 28 12 15 1016.6 1015.3 0.0
19/05:30am 19.8 15.4 7.2 44 6.5 S 20 24 11 13 1016.5 1015.2 0.0
19/05:00am 20.2 15.8 7.2 43 6.7 S 20 26 11 14 1016.5 1015.2 0.0
19/04:30am 20.7 15.1 7.3 42 6.9 S 26 32 14 17 1016.2 1014.9 0.0
19/04:00am 21.3 15.0 7.5 41 7.2 SSE 30 37 16 20 1015.9 1014.6 0.0
19/03:30am 21.7 15.1 7.9 41 7.3 SSE 32 41 17 22 1015.7 1014.4 0.0
19/03:00am 22.5 15.8 7.5 38 7.9 SSE 32 41 17 22 1015.5 1014.2 0.0
19/02:30am 23.2 16.0 6.0 33 8.8 SSE 33 41 18 22 1015.5 1014.2 0.0
19/02:00am 24.0 16.0 3.9 27 10.0 SSE 35 43 19 23 1015.4 1014.1 0.0
19/01:30am 24.6 18.0 4.4 27 10.2 SSE 28 35 15 19 1015.2 1013.9 0.0
19/01:00am 25.2 17.0 4.9 27 10.3 SSE 37 43 20 23 1014.8 1013.5 0.0
19/12:30am 25.9 17.3 4.9 26 10.7 S 39 48 21 26 1014.4 1013.1 0.0
19/12:00am 26.9 17.9 4.6 24 11.4 S 41 52 22 28 1014.1 1012.8 0.0
 
Date/Time
CDT
Temp
°C
App
Temp
°C
Dew
Point
Rel
Hum
%
Delta-T
°C
Wind Press
QNH
hPa
Press
MSL
hPa
Rain
since 9 am
mm
Dir
 
Spd
km/h
Gust
km/h
Spd
kts
Gust
kts
18/11:30pm 27.9 19.3 4.9 23 11.9 S 39 48 21 26 1013.9 1012.5 0.0
18/11:00pm 29.0 19.5 5.1 22 12.5 S 44 57 24 31 1013.3 1011.9 0.0
18/10:30pm 30.3 22.4 4.1 19 13.6 S 35 43 19 23 1013.0 1011.6 0.0
18/10:00pm 30.9 23.9 2.2 16 14.5 S 28 33 15 18 1012.8 1011.4 0.0
18/09:30pm 31.6 25.3 1.8 15 15.0 S 24 32 13 17 1012.5 1011.2 0.0
18/09:00pm 32.2 24.3 1.3 14 15.5 S 32 39 17 21 1012.2 1010.9 0.0
18/08:30pm 32.9 25.4 0.9 13 16.0 S 30 39 16 21 1011.9 1010.6 0.0
18/08:00pm 33.7 26.6 1.5 13 16.3 S 28 35 15 19 1011.5 1010.2 0.0
18/07:30pm 34.9 28.2 1.3 12 17.1 S 26 39 14 21 1011.2 1009.9 0.0
18/07:00pm 34.7 29.3 2.3 13 16.7 S 20 32 11 17 1010.9 1009.6 0.0
18/06:30pm 35.5 29.8 2.9 13 17.1 SSW 22 41 12 22 1010.8 1009.5 0.0
18/06:00pm 36.2 30.6 3.4 13 17.4 SW 22 35 12 19 1010.4 1009.1 0.0
18/05:30pm 35.7 31.7 5.1 15 16.6 SSE 15 28 8 15 1010.5 1009.2 0.0
18/05:00pm 35.1 31.2 5.5 16 16.1 SSE 15 24 8 13 1010.6 1009.3 0.0
18/04:30pm 34.6 31.6 6.0 17 15.7 SW 11 24 6 13 1010.7 1009.4 0.0
18/04:00pm 35.8 32.4 6.1 16 16.4 W 13 20 7 11 1010.9 1009.6 0.0
18/03:30pm 34.3 32.0 5.8 17 15.5 SSW 7 15 4 8 1011.1 1009.8 0.0
18/03:00pm 35.3 32.0 6.6 17 15.9 ESE 13 20 7 11 1011.3 1010.0 0.0
18/02:30pm 35.0 32.4 6.3 17 15.8 SSW 9 17 5 9 1011.4 1010.1 0.0
18/02:00pm 33.5 29.7 5.9 18 15.0 S 15 24 8 13 1011.6 1010.3 0.0
18/01:30pm 34.4 32.5 7.5 19 15.1 NNW 7 11 4 6 1011.8 1010.5 0.0
18/01:00pm 32.2 29.6 7.8 22 13.6 SSW 11 22 6 12 1012.1 1010.8 0.0
18/12:30pm 32.6 29.5 7.4 21 14.0 SW 13 24 7 13 1012.2 1010.9 0.0
18/12:00pm 31.3 27.5 7.7 23 13.1 SSE 17 30 9 16 1012.2 1010.9 0.0
18/11:30am 31.2 27.6 8.2 24 12.8 SSW 17 22 9 12 1012.2 1010.9 0.0
18/11:00am 30.2 26.7 5.5 21 13.1 S 13 20 7 11 1012.2 1010.9 0.0
18/10:30am 29.3 25.3 4.7 21 12.8 SSE 15 24 8 13 1012.5 1011.2 0.0
18/10:00am 28.9 24.7 3.7 20 12.9 SSE 15 20 8 11 1012.4 1011.1 0.0
18/09:30am 28.6 24.1 4.2 21 12.6 SSE 17 22 9 12 1012.3 1011.0 0.0
18/09:00am 27.9 24.2 4.2 22 12.1 SE 13 19 7 10 1012.0 1010.7 0.0
18/08:30am 26.8 22.3 4.0 23 11.6 SSE 17 20 9 11 1011.6 1010.3 0.0
18/08:00am 26.0 21.7 3.3 23 11.3 SE 15 19 8 10 1011.1 1009.8 0.0
18/07:30am 25.5 21.5 2.9 23 11.1 SSE 13 17 7 9 1010.7 1009.4 0.0
18/07:00am 25.3 20.0 2.1 22 11.2 SE 19 26 10 14 1010.3 1009.0 0.0
18/06:30am 25.8 23.2 3.1 23 11.3 SE 6 11 3 6 1009.8 1008.4 0.0
18/06:00am 26.5 23.5 1.7 20 12.1 SE 7 11 4 6 1009.4 1008.0 0.0
18/05:30am 27.1 24.3 2.9 21 12.1 SE 7 9 4 5 1009.0 1007.6 0.0
18/05:00am 27.8 25.8 4.2 22 12.1 S 4 7 2 4 1008.8 1007.4 0.0
18/04:30am 28.0 25.7 5.6 24 11.8 W 7 15 4 8 1008.5 1007.1 0.0
18/04:00am 27.3 24.2 3.7 22 11.9 NNW 9 9 5 5 1008.3 1006.9 0.0
18/03:30am 28.0 24.8 3.0 20 12.6 NNW 9 13 5 7 1008.4 1007.0 0.0
18/03:00am 28.0 25.5 3.7 21 12.4 N 6 9 3 5 1008.3 1006.9 0.0
18/02:30am 28.4 26.2 3.3 20 12.7 ESE 4 7 2 4 1008.5 1007.1 0.0
18/02:00am 28.8 26.6 3.6 20 12.8 SSE 4 7 2 4 1008.6 1007.2 0.0
18/01:30am 29.2 26.0 3.2 19 13.2 SSE 9 11 5 6 1008.7 1007.3 0.0
18/01:00am 28.8 27.3 2.9 19 13.0 CALM 0 0 0 0 1009.0 1007.6 0.0
18/12:30am 29.2 27.7 3.2 19 13.2 CALM 0 0 0 0 1009.2 1007.8 0.0
18/12:00am 29.1 26.4 2.4 18 13.4 SSW 6 7 3 4 1009.3 1007.9 0.0
 
Date/Time
CDT
Temp
°C
App
Temp
°C
Dew
Point
Rel
Hum
%
Delta-T
°C
Wind Press
QNH
hPa
Press
MSL
hPa
Rain
since 9 am
mm
Dir
 
Spd
km/h
Gust
km/h
Spd
kts
Gust
kts
17/11:30pm 29.5 26.1 1.9 17 13.7 SSW 9 11 5 6 1009.1 1007.7 0.0
17/11:00pm 29.8 25.7 2.1 17 13.8 SW 13 15 7 8 1008.7 1007.3 0.0
17/10:30pm 29.9 26.7 3.0 18 13.7 SW 9 11 5 6 1008.7 1007.3 0.0
17/10:00pm 30.4 27.1 2.6 17 14.1 S 9 11 5 6 1007.6 1006.3 0.0
17/09:30pm 30.4 27.1 2.6 17 14.1 SSW 9 11 5 6 1007.6 1006.3 0.0
17/09:00pm 30.5 26.5 2.7 17 14.1 SW 13 15 7 8 1007.5 1006.2 0.0
17/08:30pm 30.8 25.7 2.9 17 14.3 SSW 19 22 10 12 1007.7 1006.4 0.0
17/08:00pm 31.1 26.6 2.3 16 14.6 SW 15 20 8 11 1007.8 1006.5 0.0
17/07:30pm 31.5 26.6 1.8 15 15.0 SSW 17 26 9 14 1006.7 1005.4 0.0
17/07:00pm 31.8 26.9 2.0 15 15.1 S 17 24 9 13 1006.5 1005.2 0.0
17/06:30pm 31.8 27.7 2.0 15 15.1 WSW 13 22 7 12 1006.2 1004.9 0.0
17/06:00pm 31.9 27.0 2.1 15 15.1 SW 17 26 9 14 1006.6 1005.3 0.0
17/05:30pm 32.0 27.0 1.2 14 15.4 WSW 17 24 9 13 1006.9 1005.6 0.0
17/05:00pm 32.2 26.8 1.3 14 15.5 SW 19 30 10 16 1007.0 1005.7 0.0
17/04:30pm 32.6 28.1 -0.5 12 16.2 SW 13 26 7 14 1007.0 1005.7 0.0
17/04:00pm 32.4 26.5 -0.6 12 16.0 SW 20 28 11 15 1007.0 1005.7 0.0
17/03:30pm 31.5 26.1 -1.3 12 15.7 SSW 17 26 9 14 1007.6 1006.3 0.0
17/03:00pm 30.8 25.9 -0.8 13 15.2 WSW 15 26 8 14 1008.2 1006.8 0.0
17/02:30pm 29.9 25.8 -0.5 14 14.6 SSW 11 19 6 10 1008.7 1007.3 0.0
17/02:00pm 29.3 26.1 0.9 16 13.9 W 7 17 4 9 1009.1 1007.7 0.0
17/01:30pm 27.6 23.6 0.4 17 13.0 ESE 11 15 6 8 1009.6 1008.2 0.0
17/01:00pm 26.7 22.7 0.4 18 12.5 SSE 11 17 6 9 1010.1 1008.8 0.0
17/12:30pm 26.2 23.1 3.4 23 11.4 SE 9 17 5 9 1010.5 1009.2 0.0
17/12:00pm 24.2 19.9 3.5 26 10.2 SSE 15 24 8 13 1010.9 1009.6 0.0
17/11:30am 23.7 19.6 4.6 29 9.6 SE 15 24 8 13 1011.1 1009.8 0.0
17/11:00am 22.3 17.4 5.3 33 8.6 SSE 20 30 11 16 1011.3 1010.0 0.0
17/10:30am 22.0 17.7 5.4 34 8.4 SE 17 26 9 14 1011.8 1010.5 0.0
17/10:00am 20.9 16.7 5.7 37 7.6 SSE 17 24 9 13 1012.0 1010.7 0.0
17/09:30am 19.5 15.0 5.9 41 6.8 SSE 19 26 10 14 1012.3 1011.0 0.0
17/09:00am 19.3 15.2 6.1 42 6.6 SE 17 24 9 13 1012.4 1011.1 0.0
17/08:30am 18.1 13.5 6.3 46 5.9 SSE 20 28 11 15 1012.1 1010.8 0.0

Other Formats:

Comma delimited format used in spreadsheet applications
http://www.bom.gov.au/fwo/IDS60801/IDS60801.95458.axf

JavaScript Object Notation format (JSON) in row-major order
http://www.bom.gov.au/fwo/IDS60801/IDS60801.95458.json